Time;durP1;ratioP1;P1;durP2;ratioP2;P2;SDS_P1;SDS_P2;PMS_P1;PMS_P2;Temp;Humidity;BMP_temperature;BMP_pressure;BME280_temperature;BME280_humidity;BME280_pressure;Samples;Min_cycle;Max_cycle;Signal;HPM_P1;HPM_P2
2021/04/07 00:00:14;;;;;;;30.98;13.10;;;-0.50;99.90;;;;;;4886817;29;20049;-82
2021/04/07 00:02:41;;;;;;;25.63;11.07;;;-0.50;99.90;;;;;;4885169;29;20063;-81
2021/04/07 00:05:15;;;;;;;25.05;10.45;;;-0.50;99.90;;;;;;4859459;29;20059;-82
2021/04/07 00:07:43;;;;;;;24.90;10.00;;;-0.60;99.90;;;;;;4870562;29;20052;-82
2021/04/07 00:10:15;;;;;;;23.65;10.68;;;-0.50;99.90;;;;;;4876861;29;20285;-83
2021/04/07 00:12:43;;;;;;;15.13;9.35;;;-0.50;99.90;;;;;;4877913;29;20534;-83
2021/04/07 00:15:13;;;;;;;16.75;8.40;;;-0.60;99.90;;;;;;4877712;29;20092;-83
2021/04/07 00:17:40;;;;;;;24.58;9.20;;;-0.60;99.90;;;;;;4877328;29;20053;-82
2021/04/07 00:20:15;;;;;;;17.38;8.30;;;-0.60;99.90;;;;;;4868469;29;20087;-83
2021/04/07 00:22:42;;;;;;;14.52;7.22;;;-0.60;99.90;;;;;;4874650;29;20056;-82
2021/04/07 00:25:10;;;;;;;12.73;7.78;;;-0.70;99.90;;;;;;4889412;29;20053;-83
2021/04/07 00:27:38;;;;;;;15.73;7.85;;;-0.70;99.90;;;;;;4873912;29;20405;-84
2021/04/07 00:30:06;;;;;;;15.23;7.95;;;-0.70;99.90;;;;;;4893552;29;20052;-83
2021/04/07 00:32:33;;;;;;;17.45;7.88;;;-0.70;99.90;;;;;;4887017;29;20057;-84
2021/04/07 00:34:59;;;;;;;23.17;9.82;;;-0.80;99.90;;;;;;4879067;29;20512;-83
2021/04/07 00:37:26;;;;;;;24.67;10.93;;;-0.70;99.90;;;;;;4872641;29;20052;-83
2021/04/07 00:39:53;;;;;;;23.65;10.50;;;-0.80;99.90;;;;;;4898365;29;20214;-83
2021/04/07 00:42:21;;;;;;;21.55;10.90;;;-0.80;99.90;;;;;;4857531;29;20084;-82
2021/04/07 00:44:47;;;;;;;27.02;12.43;;;-0.80;99.90;;;;;;4858154;29;20053;-83
2021/04/07 00:47:16;;;;;;;25.50;11.75;;;-0.80;99.90;;;;;;4868899;29;20045;-82
2021/04/07 00:49:43;;;;;;;24.60;11.60;;;-0.80;99.90;;;;;;4889746;29;20089;-82
2021/04/07 00:52:10;;;;;;;25.10;10.13;;;-0.80;99.90;;;;;;4871945;29;20053;-81
2021/04/07 00:54:37;;;;;;;20.67;10.52;;;-0.80;99.90;;;;;;4852534;29;20079;-84
2021/04/07 00:57:04;;;;;;;24.65;10.73;;;-0.80;99.90;;;;;;4873499;29;20053;-82
2021/04/07 00:59:32;;;;;;;22.85;9.93;;;-0.80;99.90;;;;;;4900341;29;20056;-81
2021/04/07 01:01:59;;;;;;;25.48;9.82;;;-0.80;99.90;;;;;;4861140;29;20049;-83
2021/04/07 01:04:27;;;;;;;16.92;9.25;;;-0.80;99.90;;;;;;4902690;29;20072;-83
2021/04/07 01:06:54;;;;;;;21.02;9.70;;;-0.80;99.90;;;;;;4846302;29;20060;-82
2021/04/07 01:09:20;;;;;;;23.60;10.80;;;-0.80;99.90;;;;;;4890868;29;20081;-82
2021/04/07 01:11:46;;;;;;;25.17;11.65;;;-0.80;99.90;;;;;;4889139;29;20342;-82
2021/04/07 01:14:13;;;;;;;23.80;11.18;;;-0.80;99.90;;;;;;4861420;29;20057;-82
2021/04/07 01:16:40;;;;;;;36.35;12.38;;;-0.80;99.90;;;;;;4881568;29;20063;-81
2021/04/07 01:19:09;;;;;;;30.95;11.88;;;-0.70;99.90;;;;;;4894233;29;20056;-81
2021/04/07 01:21:38;;;;;;;25.50;11.65;;;-0.80;99.90;;;;;;4892984;29;20131;-81
2021/04/07 01:24:07;;;;;;;28.90;12.10;;;-0.80;99.90;;;;;;4876420;29;20060;-81
2021/04/07 01:26:34;;;;;;;24.33;11.90;;;-0.80;99.90;;;;;;4890917;29;20555;-81
2021/04/07 01:29:01;;;;;;;29.85;12.00;;;-0.70;99.90;;;;;;4865949;29;20052;-81
2021/04/07 01:31:28;;;;;;;27.73;10.90;;;-0.70;99.90;;;;;;4893374;29;20041;-81
2021/04/07 01:33:54;;;;;;;27.83;12.40;;;-0.70;99.90;;;;;;4886512;29;20405;-80
2021/04/07 01:36:24;;;;;;;29.98;11.85;;;-0.70;99.90;;;;;;4877343;29;20439;-81
2021/04/07 01:38:51;;;;;;;27.88;10.70;;;-0.80;99.90;;;;;;4869769;29;20053;-81
2021/04/07 01:41:19;;;;;;;21.15;9.10;;;-0.80;99.90;;;;;;4860966;29;20059;-81
2021/04/07 01:43:48;;;;;;;30.95;9.48;;;-0.80;99.90;;;;;;4893277;29;20053;-80
2021/04/07 01:46:14;;;;;;;21.42;9.30;;;-0.80;99.90;;;;;;4877795;29;20113;-80
2021/04/07 01:48:41;;;;;;;18.85;6.75;;;-0.80;99.90;;;;;;4887986;29;20045;-82
2021/04/07 01:51:10;;;;;;;20.02;8.63;;;-0.80;99.90;;;;;;4877081;29;20049;-81
2021/04/07 01:53:37;;;;;;;20.00;8.50;;;-0.80;99.90;;;;;;4880296;29;20083;-82
2021/04/07 01:56:04;;;;;;;23.92;8.88;;;-0.90;99.90;;;;;;4875464;29;20487;-83
2021/04/07 01:58:37;;;;;;;21.02;7.13;;;-0.80;99.90;;;;;;4882354;29;20143;-81
2021/04/07 02:01:05;;;;;;;20.95;7.30;;;-0.80;99.90;;;;;;4870159;29;20063;-81
2021/04/07 02:03:32;;;;;;;23.52;7.65;;;-0.80;99.90;;;;;;4882386;29;20099;-82
2021/04/07 02:05:58;;;;;;;26.80;7.75;;;-0.80;99.90;;;;;;4906547;29;20053;-80
2021/04/07 02:08:24;;;;;;;23.58;7.82;;;-0.80;99.90;;;;;;4877183;29;20045;-81
2021/04/07 02:10:51;;;;;;;19.48;8.00;;;-0.80;99.90;;;;;;4886298;29;20053;-81
2021/04/07 02:13:18;;;;;;;21.35;8.02;;;-0.80;99.90;;;;;;4862856;29;20063;-82
2021/04/07 02:15:44;;;;;;;20.92;9.70;;;-0.80;99.90;;;;;;4878648;29;20075;-81
2021/04/07 02:18:11;;;;;;;19.58;8.00;;;-0.80;99.90;;;;;;4906751;29;20504;-82
2021/04/07 02:20:37;;;;;;;19.08;8.10;;;-0.80;99.90;;;;;;4887545;29;20515;-81
2021/04/07 02:23:03;;;;;;;28.08;10.18;;;-0.80;99.90;;;;;;4894738;29;20504;-81
2021/04/07 02:25:30;;;;;;;25.83;7.78;;;-0.80;99.90;;;;;;4878392;29;20045;-81
2021/04/07 02:27:56;;;;;;;23.58;8.82;;;-0.80;99.90;;;;;;4891506;29;20052;-81
2021/04/07 02:30:23;;;;;;;24.95;8.63;;;-0.90;99.90;;;;;;4886918;29;20049;-80
2021/04/07 02:32:50;;;;;;;29.35;9.55;;;-0.80;99.90;;;;;;4875731;29;20053;-82
2021/04/07 02:35:16;;;;;;;24.08;8.95;;;-0.80;99.90;;;;;;4889256;29;20453;-80
2021/04/07 02:37:42;;;;;;;23.33;9.02;;;-0.80;99.90;;;;;;4891518;29;20572;-80
2021/04/07 02:40:09;;;;;;;24.83;8.40;;;-0.80;99.90;;;;;;4905085;29;20139;-81
2021/04/07 02:42:36;;;;;;;24.00;8.48;;;-0.80;99.90;;;;;;4890416;29;20628;-80
2021/04/07 02:45:04;;;;;;;27.90;8.88;;;-0.80;99.90;;;;;;4874188;29;20140;-81
2021/04/07 02:47:31;;;;;;;20.92;8.80;;;-0.80;99.90;;;;;;4860471;29;20104;-80
2021/04/07 02:49:57;;;;;;;22.58;9.45;;;-0.80;99.90;;;;;;4882909;29;20068;-79
2021/04/07 02:52:23;;;;;;;18.77;8.85;;;-0.80;99.90;;;;;;4873537;29;20151;-80
2021/04/07 02:54:51;;;;;;;26.90;10.18;;;-0.90;99.90;;;;;;4874309;29;20156;-80
2021/04/07 02:57:17;;;;;;;29.35;10.50;;;-0.90;99.90;;;;;;4874126;29;20049;-80
2021/04/07 02:59:44;;;;;;;31.90;11.55;;;-0.90;99.90;;;;;;4879728;29;20524;-79
2021/04/07 03:02:10;;;;;;;17.63;9.48;;;-0.90;99.90;;;;;;4900298;29;20427;-80
2021/04/07 03:04:37;;;;;;;25.48;9.40;;;-0.90;99.90;;;;;;4858343;29;20053;-80
2021/04/07 03:07:03;;;;;;;30.77;10.48;;;-0.90;99.90;;;;;;4885976;29;20060;-80
2021/04/07 03:09:29;;;;;;;24.05;9.90;;;-0.90;99.90;;;;;;4874344;29;20112;-79
2021/04/07 03:11:56;;;;;;;20.25;8.73;;;-0.90;99.90;;;;;;4876736;29;20041;-80
2021/04/07 03:14:23;;;;;;;23.65;9.98;;;-1.00;99.90;;;;;;4866510;29;20057;-79
2021/04/07 03:16:49;;;;;;;15.73;8.63;;;-0.90;99.90;;;;;;4860419;29;20053;-79
2021/04/07 03:19:16;;;;;;;23.52;10.20;;;-1.00;99.90;;;;;;4880291;29;20052;-80
2021/04/07 03:21:42;;;;;;;36.65;12.32;;;-1.10;99.90;;;;;;4858015;29;20136;-79
2021/04/07 03:24:09;;;;;;;24.95;11.88;;;-1.10;99.90;;;;;;4881204;29;20071;-79
2021/04/07 03:26:35;;;;;;;27.17;12.38;;;-1.10;99.90;;;;;;4892046;29;20053;-79
2021/04/07 03:29:02;;;;;;;23.95;11.90;;;-1.10;99.90;;;;;;4901303;29;20108;-79
2021/04/07 03:31:28;;;;;;;30.20;13.20;;;-1.10;99.90;;;;;;4856948;29;20057;-79
2021/04/07 03:33:55;;;;;;;29.73;14.25;;;-1.10;99.90;;;;;;4890049;29;20048;-80
2021/04/07 03:36:21;;;;;;;35.22;13.27;;;-1.10;99.90;;;;;;4869000;29;20916;-80
2021/04/07 03:38:48;;;;;;;34.20;15.35;;;-1.10;99.90;;;;;;4874957;29;20124;-79
2021/04/07 03:41:14;;;;;;;41.20;18.65;;;-1.10;99.90;;;;;;4891124;29;20040;-79
2021/04/07 03:43:41;;;;;;;37.83;17.10;;;-1.10;99.90;;;;;;4900929;29;20124;-80
2021/04/07 03:46:07;;;;;;;49.22;20.92;;;-1.10;99.90;;;;;;4874990;29;20047;-80
2021/04/07 03:48:34;;;;;;;50.13;22.00;;;-1.00;99.90;;;;;;4886676;29;20049;-80
2021/04/07 03:51:01;;;;;;;41.38;22.08;;;-1.10;99.90;;;;;;4872198;29;20527;-79
2021/04/07 03:53:28;;;;;;;44.72;22.65;;;-1.00;99.90;;;;;;4880386;29;20528;-79
2021/04/07 03:55:56;;;;;;;49.63;24.70;;;-1.00;99.90;;;;;;4859761;29;20554;-79
2021/04/07 03:58:24;;;;;;;51.42;23.60;;;-1.00;99.90;;;;;;4873925;29;20419;-79
2021/04/07 04:00:51;;;;;;;47.47;21.50;;;-1.00;99.90;;;;;;4874397;29;20128;-78
2021/04/07 04:03:17;;;;;;;55.95;25.35;;;-1.00;99.90;;;;;;4890544;29;20108;-79
2021/04/07 04:05:44;;;;;;;55.45;26.27;;;-1.10;99.90;;;;;;4890522;29;20056;-79
2021/04/07 04:08:10;;;;;;;54.30;26.33;;;-1.10;99.90;;;;;;4871791;29;20084;-80
2021/04/07 04:10:37;;;;;;;60.50;26.17;;;-1.00;99.90;;;;;;4871770;29;20064;-79
2021/04/07 04:13:04;;;;;;;47.70;22.50;;;-1.00;99.90;;;;;;4856883;29;20080;-79
2021/04/07 04:15:32;;;;;;;45.55;20.73;;;-1.00;99.90;;;;;;4856417;29;20542;-79
2021/04/07 04:17:59;;;;;;;50.13;20.60;;;-1.10;99.90;;;;;;4900707;29;20503;-79
2021/04/07 04:20:25;;;;;;;50.05;24.30;;;-1.10;99.90;;;;;;4877669;29;20061;-79
2021/04/07 04:22:52;;;;;;;53.47;23.05;;;-1.10;99.90;;;;;;4879114;29;20052;-79
2021/04/07 04:25:21;;;;;;;44.20;22.55;;;-1.10;99.90;;;;;;4889837;29;20083;-79
2021/04/07 04:27:48;;;;;;;46.92;19.08;;;-1.10;99.90;;;;;;4891006;29;20287;-79
2021/04/07 04:30:17;;;;;;;50.65;22.55;;;-1.10;99.90;;;;;;4891006;29;20140;-79
2021/04/07 04:32:44;;;;;;;41.85;20.33;;;-1.10;99.90;;;;;;4888359;29;20145;-79
2021/04/07 04:35:12;;;;;;;37.00;18.40;;;-1.10;99.90;;;;;;4888510;29;20063;-78
2021/04/07 04:37:40;;;;;;;42.10;20.73;;;-1.10;99.90;;;;;;4891028;29;20053;-78
2021/04/07 04:40:08;;;;;;;50.03;21.83;;;-1.10;99.90;;;;;;4874702;29;20056;-79
2021/04/07 04:42:35;;;;;;;38.10;19.98;;;-1.10;99.90;;;;;;4906496;29;20728;-78
2021/04/07 04:45:01;;;;;;;50.45;22.38;;;-1.10;99.90;;;;;;4878775;29;20044;-79
2021/04/07 04:47:28;;;;;;;43.78;21.73;;;-1.10;99.90;;;;;;4887282;29;20078;-79
2021/04/07 04:49:56;;;;;;;43.40;22.27;;;-1.10;99.90;;;;;;4887659;29;20056;-79
2021/04/07 04:52:23;;;;;;;44.25;23.08;;;-1.10;99.90;;;;;;4876075;29;20541;-78
2021/04/07 04:54:49;;;;;;;39.80;19.33;;;-1.10;99.90;;;;;;4891607;29;20053;-79
2021/04/07 04:57:16;;;;;;;38.13;19.25;;;-1.10;99.90;;;;;;4875952;29;20064;-78
2021/04/07 04:59:43;;;;;;;32.17;17.80;;;-1.00;99.90;;;;;;4875131;29;20041;-78
2021/04/07 05:02:10;;;;;;;34.35;16.85;;;-1.00;99.90;;;;;;4892056;29;20072;-79
2021/04/07 05:04:37;;;;;;;31.70;15.95;;;-1.00;99.90;;;;;;4890907;29;20496;-78
2021/04/07 05:07:03;;;;;;;27.35;15.15;;;-1.00;99.90;;;;;;4892076;29;20056;-78
2021/04/07 05:09:30;;;;;;;28.48;16.30;;;-1.00;99.90;;;;;;4891084;29;20087;-78
2021/04/07 05:11:57;;;;;;;34.17;18.00;;;-1.00;99.90;;;;;;4874980;29;20507;-78
2021/04/07 05:14:23;;;;;;;40.65;19.50;;;-0.90;99.90;;;;;;4878415;29;20114;-79
2021/04/07 05:16:50;;;;;;;37.97;18.70;;;-0.90;99.90;;;;;;4865224;29;20148;-78
2021/04/07 05:19:18;;;;;;;39.60;19.15;;;-0.90;99.90;;;;;;4890080;29;20056;-78
2021/04/07 05:21:45;;;;;;;39.00;21.40;;;-0.90;99.90;;;;;;4859141;29;20105;-78
2021/04/07 05:24:12;;;;;;;44.88;22.13;;;-0.90;99.90;;;;;;4874302;29;20076;-78
2021/04/07 05:26:38;;;;;;;44.05;19.67;;;-0.80;99.90;;;;;;4883514;29;20044;-78
2021/04/07 05:29:05;;;;;;;33.05;17.67;;;-0.70;99.90;;;;;;4893068;29;20068;-80
2021/04/07 05:31:33;;;;;;;40.05;19.58;;;-0.70;99.90;;;;;;4889423;29;20093;-77
2021/04/07 05:34:00;;;;;;;49.45;21.02;;;-0.60;99.90;;;;;;4873892;29;20057;-77
2021/04/07 05:36:27;;;;;;;38.75;20.27;;;-0.60;99.90;;;;;;4879697;29;20143;-77
2021/04/07 05:38:53;;;;;;;44.30;21.83;;;-0.60;99.90;;;;;;4905298;29;20135;-79
2021/04/07 05:41:20;;;;;;;46.92;21.58;;;-0.60;99.90;;;;;;4863915;29;20110;-78
2021/04/07 05:43:50;;;;;;;40.53;21.33;;;-0.60;99.90;;;;;;4889268;29;20465;-78
2021/04/07 05:46:16;;;;;;;48.92;21.98;;;-0.60;99.90;;;;;;4875847;29;20049;-78
2021/04/07 05:48:43;;;;;;;55.28;23.30;;;-0.60;99.90;;;;;;4876642;29;20041;-78
2021/04/07 05:51:11;;;;;;;52.25;23.42;;;-0.60;99.90;;;;;;4906723;29;20076;-78
2021/04/07 05:53:38;;;;;;;46.78;22.67;;;-0.50;99.90;;;;;;4862439;29;20246;-78
2021/04/07 05:56:24;;;;;;;56.58;24.75;;;-0.50;99.90;;;;;;4871494;29;20068;-79
2021/04/07 05:58:51;;;;;;;54.00;24.33;;;-0.50;99.90;;;;;;4868773;29;20052;-79
2021/04/07 06:01:18;;;;;;;52.72;24.23;;;-0.40;99.90;;;;;;4882575;29;20371;-78
2021/04/07 06:03:49;;;;;;;52.03;24.27;;;-0.40;99.90;;;;;;4857622;29;20068;-78
2021/04/07 06:06:15;;;;;;;50.42;22.67;;;-0.40;99.90;;;;;;4875974;29;20052;-79
2021/04/07 06:08:42;;;;;;;51.33;25.08;;;-0.30;99.90;;;;;;4861057;29;20061;-78
2021/04/07 06:11:09;;;;;;;56.83;25.63;;;-0.30;99.90;;;;;;4876390;29;20560;-78
2021/04/07 06:13:36;;;;;;;63.65;27.42;;;-0.30;99.90;;;;;;4889294;29;20104;-79
2021/04/07 06:16:03;;;;;;;62.90;27.70;;;-0.20;99.90;;;;;;4880530;29;20048;-78
2021/04/07 06:18:29;;;;;;;66.43;27.15;;;-0.20;99.90;;;;;;4881402;29;20496;-78
2021/04/07 06:20:56;;;;;;;57.70;25.35;;;-0.20;99.90;;;;;;4873033;29;20063;-78
2021/04/07 06:23:23;;;;;;;43.95;21.80;;;-0.10;99.90;;;;;;4892123;29;20055;-79
2021/04/07 06:25:49;;;;;;;57.00;25.02;;;-0.20;99.90;;;;;;4881041;29;20063;-78
2021/04/07 06:28:16;;;;;;;61.75;26.30;;;-0.20;99.90;;;;;;4900590;29;20136;-79
2021/04/07 06:30:44;;;;;;;65.15;28.02;;;-0.10;99.90;;;;;;4889717;29;20060;-78
2021/04/07 06:33:28;;;;;;;57.72;25.38;;;-0.10;99.90;;;;;;4884462;29;20067;-79
2021/04/07 06:36:01;;;;;;;54.30;25.17;;;-0.10;99.90;;;;;;4869756;29;20048;-78
2021/04/07 06:38:27;;;;;;;52.13;21.13;;;-0.10;99.90;;;;;;4889143;29;20053;-78
2021/04/07 06:40:55;;;;;;;56.17;23.88;;;-0.10;99.90;;;;;;4858038;29;20064;-79
2021/04/07 06:43:24;;;;;;;53.25;25.13;;;0.00;99.90;;;;;;4896055;29;20116;-78
2021/04/07 06:45:51;;;;;;;60.47;27.38;;;0.00;99.90;;;;;;4860124;29;20135;-78
2021/04/07 06:48:18;;;;;;;52.70;22.90;;;0.10;99.90;;;;;;4888346;29;20049;-78
2021/04/07 06:50:50;;;;;;;60.85;25.02;;;0.20;99.90;;;;;;4854404;29;20128;-78
2021/04/07 06:53:18;;;;;;;52.88;25.17;;;0.10;99.90;;;;;;4890343;29;20068;-78
2021/04/07 06:55:45;;;;;;;52.45;24.95;;;0.10;99.90;;;;;;4858063;29;20428;-77
2021/04/07 06:58:12;;;;;;;65.68;26.77;;;0.10;99.90;;;;;;4880296;29;20056;-78
2021/04/07 07:00:40;;;;;;;45.63;22.10;;;0.10;99.90;;;;;;4870076;29;20057;-78
2021/04/07 07:03:11;;;;;;;57.42;26.33;;;0.10;99.90;;;;;;4908262;29;20210;-78
2021/04/07 07:05:40;;;;;;;60.67;27.20;;;0.20;99.90;;;;;;4872958;29;20049;-78
2021/04/07 07:08:10;;;;;;;57.58;25.90;;;0.30;99.90;;;;;;4858954;29;20049;-78
2021/04/07 07:10:45;;;;;;;55.97;26.70;;;0.30;99.90;;;;;;4873822;29;20063;-79
2021/04/07 07:13:24;;;;;;;56.00;27.17;;;0.30;99.90;;;;;;4878693;29;20057;-79
2021/04/07 07:15:52;;;;;;;51.28;24.77;;;0.50;99.90;;;;;;4881586;29;20053;-79
2021/04/07 07:18:27;;;;;;;46.95;22.55;;;0.40;99.90;;;;;;4883826;29;20051;-78
2021/04/07 07:20:56;;;;;;;59.40;27.85;;;0.50;99.90;;;;;;4857602;29;20072;-79
2021/04/07 07:23:32;;;;;;;47.85;21.58;;;0.60;99.90;;;;;;4873947;29;20065;-79
2021/04/07 07:26:07;;;;;;;45.10;22.75;;;0.40;99.90;;;;;;4883437;29;20060;-78
2021/04/07 07:28:51;;;;;;;55.78;23.50;;;0.40;99.90;;;;;;4889398;29;20108;-78
2021/04/07 07:31:24;;;;;;;47.43;21.40;;;0.40;99.90;;;;;;4886059;29;20052;-78
2021/04/07 07:33:53;;;;;;;44.92;18.38;;;0.40;99.90;;;;;;4888022;29;20063;-78
2021/04/07 07:36:21;;;;;;;46.90;22.75;;;0.40;99.90;;;;;;4886732;29;20049;-78
2021/04/07 07:38:51;;;;;;;46.53;19.95;;;0.30;99.90;;;;;;4876762;29;20056;-78
2021/04/07 07:41:26;;;;;;;37.10;16.60;;;0.40;99.90;;;;;;4873494;29;20064;-78
2021/04/07 07:44:11;;;;;;;46.17;20.67;;;0.40;99.90;;;;;;4870465;29;20049;-78
2021/04/07 07:46:39;;;;;;;35.97;16.98;;;0.40;99.90;;;;;;4861384;29;20073;-76
2021/04/07 07:49:14;;;;;;;37.60;17.88;;;0.40;99.90;;;;;;4902989;29;20503;-78
2021/04/07 07:51:45;;;;;;;34.65;17.15;;;0.50;99.90;;;;;;4878336;29;20060;-76
2021/04/07 07:54:14;;;;;;;32.28;17.63;;;0.60;99.90;;;;;;4905047;29;20068;-76
2021/04/07 07:56:40;;;;;;;34.08;16.33;;;0.60;99.90;;;;;;4902770;29;20061;-76
2021/04/07 07:59:28;;;;;;;30.73;15.85;;;0.70;99.90;;;;;;4885032;29;20427;-74
2021/04/07 08:01:56;;;;;;;34.15;17.20;;;0.80;99.90;;;;;;4880214;29;20048;-77
2021/04/07 08:04:23;;;;;;;29.27;16.15;;;0.80;99.90;;;;;;4883077;29;20056;-78
2021/04/07 08:06:50;;;;;;;27.92;14.73;;;0.90;99.90;;;;;;4886825;29;20159;-76
2021/04/07 08:09:16;;;;;;;27.38;16.27;;;0.90;99.90;;;;;;4887820;29;20052;-76
2021/04/07 08:11:45;;;;;;;21.25;10.70;;;1.00;99.90;;;;;;4872119;29;20097;-78
2021/04/07 08:14:15;;;;;;;23.73;12.82;;;0.90;99.90;;;;;;4895023;29;20120;-78
2021/04/07 08:16:46;;;;;;;21.40;11.88;;;0.90;99.90;;;;;;4890440;29;20083;-77
2021/04/07 08:19:14;;;;;;;24.83;12.27;;;0.90;99.90;;;;;;4859142;29;20067;-78
2021/04/07 08:21:42;;;;;;;22.52;12.45;;;1.00;99.90;;;;;;4890897;29;20067;-77
2021/04/07 08:24:11;;;;;;;23.70;13.50;;;1.10;99.90;;;;;;4871689;29;20045;-77
2021/04/07 08:26:42;;;;;;;18.50;10.88;;;1.10;99.90;;;;;;4883585;29;20053;-78
2021/04/07 08:29:08;;;;;;;16.05;9.60;;;1.00;99.90;;;;;;4895619;29;20504;-77
2021/04/07 08:31:37;;;;;;;21.65;12.13;;;1.00;99.90;;;;;;4874451;29;20072;-78
2021/04/07 08:34:06;;;;;;;17.88;9.75;;;1.10;99.90;;;;;;4892951;29;20084;-77
2021/04/07 08:36:33;;;;;;;16.83;9.23;;;1.10;99.90;;;;;;4887090;29;20065;-77
2021/04/07 08:39:00;;;;;;;18.50;11.23;;;1.00;99.90;;;;;;4888672;29;20053;-78
2021/04/07 08:41:28;;;;;;;19.52;11.18;;;1.00;99.90;;;;;;4887273;29;20052;-78
2021/04/07 08:43:55;;;;;;;20.60;11.82;;;0.90;99.90;;;;;;4886626;29;20056;-77
2021/04/07 08:46:24;;;;;;;22.92;11.45;;;1.00;99.90;;;;;;4858515;29;20208;-79
2021/04/07 08:48:52;;;;;;;19.90;10.52;;;1.10;99.90;;;;;;4858560;29;20052;-77
2021/04/07 08:51:20;;;;;;;18.55;11.57;;;1.00;99.90;;;;;;4890954;29;20571;-78
2021/04/07 08:53:50;;;;;;;16.50;9.68;;;0.90;99.90;;;;;;4857432;29;20612;-79
2021/04/07 08:56:24;;;;;;;14.70;8.98;;;0.90;99.90;;;;;;4871293;29;20100;-77
2021/04/07 08:58:52;;;;;;;18.20;10.45;;;0.90;99.90;;;;;;4892656;29;20060;-78
2021/04/07 09:01:24;;;;;;;17.60;10.50;;;0.80;99.90;;;;;;4887749;29;20138;-77
2021/04/07 09:04:03;;;;;;;20.38;11.70;;;0.80;99.90;;;;;;4902211;29;20045;-78
2021/04/07 09:06:30;;;;;;;20.02;10.57;;;0.80;99.90;;;;;;4871772;29;20053;-78
2021/04/07 09:08:57;;;;;;;19.70;11.93;;;0.80;99.90;;;;;;4857090;29;20129;-78
2021/04/07 09:11:31;;;;;;;19.92;11.73;;;0.80;99.90;;;;;;4856223;29;20610;-78
2021/04/07 09:14:00;;;;;;;20.83;12.10;;;0.90;99.90;;;;;;4858944;29;20528;-77
2021/04/07 09:16:35;;;;;;;18.42;11.73;;;1.00;99.90;;;;;;4859737;29;20450;-77
2021/04/07 09:19:17;;;;;;;22.77;11.88;;;1.10;99.90;;;;;;4898454;29;20136;-76
2021/04/07 09:22:06;;;;;;;19.88;12.77;;;1.10;99.90;;;;;;4872435;29;20073;-76
2021/04/07 09:24:44;;;;;;;18.42;10.02;;;1.00;99.90;;;;;;4890714;29;20048;-77
2021/04/07 09:27:23;;;;;;;19.00;11.40;;;1.00;99.90;;;;;;4874658;29;20041;-76
2021/04/07 09:29:50;;;;;;;22.52;11.68;;;1.10;99.90;;;;;;4902836;29;20072;-77
2021/04/07 09:32:20;;;;;;;24.17;13.13;;;1.00;99.90;;;;;;4897902;29;20523;-76
2021/04/07 09:34:47;;;;;;;29.45;16.67;;;1.10;99.90;;;;;;4890531;29;20068;-77
2021/04/07 09:37:15;;;;;;;25.65;14.30;;;1.10;99.90;;;;;;4890785;29;20079;-78
2021/04/07 09:39:42;;;;;;;23.90;14.27;;;1.20;99.90;;;;;;4860367;29;20060;-78
2021/04/07 09:42:09;;;;;;;26.58;14.13;;;1.20;99.90;;;;;;4878042;29;20059;-78
2021/04/07 09:44:36;;;;;;;21.70;14.40;;;1.20;99.90;;;;;;4905545;29;20057;-76
2021/04/07 09:47:04;;;;;;;25.48;14.75;;;1.20;99.90;;;;;;4896266;29;20097;-77
2021/04/07 09:49:34;;;;;;;24.80;15.48;;;1.30;99.90;;;;;;4900140;29;20049;-77
2021/04/07 09:52:01;;;;;;;27.75;15.38;;;1.30;99.90;;;;;;4905505;29;20052;-77
2021/04/07 09:54:30;;;;;;;25.52;15.90;;;1.30;99.90;;;;;;4875007;29;20555;-78
2021/04/07 09:56:58;;;;;;;31.90;18.52;;;1.40;99.90;;;;;;4889322;29;20525;-76
2021/04/07 09:59:44;;;;;;;21.15;13.18;;;1.60;99.90;;;;;;4882473;29;20519;-72
2021/04/07 10:02:14;;;;;;;19.48;13.20;;;1.60;99.90;;;;;;4883598;29;20060;-72
2021/04/07 10:04:43;;;;;;;26.15;15.63;;;1.60;99.90;;;;;;4904456;29;20061;-73
2021/04/07 10:07:17;;;;;;;27.98;16.67;;;1.60;99.90;;;;;;4872379;29;20056;-71
2021/04/07 10:09:49;;;;;;;27.70;16.97;;;1.60;99.90;;;;;;4900897;29;20077;-75
2021/04/07 10:12:17;;;;;;;25.20;15.88;;;1.80;99.90;;;;;;4870742;29;20792;-75
2021/04/07 10:14:55;;;;;;;27.08;16.75;;;1.80;99.90;;;;;;4901171;29;20511;-74
2021/04/07 10:17:28;;;;;;;26.77;16.90;;;1.80;99.90;;;;;;4891373;29;20083;-75
2021/04/07 10:19:56;;;;;;;33.03;20.40;;;1.80;99.90;;;;;;4873797;29;20061;-74
2021/04/07 10:22:28;;;;;;;26.77;18.08;;;1.90;99.90;;;;;;4886760;29;20140;-75
2021/04/07 10:24:57;;;;;;;29.92;20.48;;;1.90;99.90;;;;;;4860568;29;20143;-74
2021/04/07 10:27:25;;;;;;;23.40;15.43;;;1.80;99.90;;;;;;4899557;29;20048;-75
2021/04/07 10:30:08;;;;;;;28.30;18.23;;;1.80;99.90;;;;;;4903135;29;20465;-75
2021/04/07 10:32:40;;;;;;;30.60;17.38;;;1.70;99.90;;;;;;4868698;29;20052;-75
2021/04/07 10:35:07;;;;;;;24.35;15.40;;;1.70;99.90;;;;;;4882946;29;20109;-74
2021/04/07 10:37:35;;;;;;;20.13;12.95;;;1.80;99.90;;;;;;4868373;29;20135;-75
2021/04/07 10:40:20;;;;;;;22.48;15.23;;;1.80;99.90;;;;;;4894121;29;20067;-74
2021/04/07 10:42:48;;;;;;;22.83;14.93;;;1.80;99.90;;;;;;4881705;29;20057;-73
2021/04/07 10:45:18;;;;;;;21.48;14.50;;;1.70;99.90;;;;;;4870898;29;20060;-75
2021/04/07 10:47:45;;;;;;;24.90;15.82;;;1.70;99.90;;;;;;4871488;29;20041;-76
2021/04/07 10:50:12;;;;;;;24.52;15.57;;;1.60;99.90;;;;;;4880483;29;20053;-75
2021/04/07 10:52:46;;;;;;;26.65;17.70;;;1.60;99.90;;;;;;4896210;29;20086;-76
2021/04/07 10:55:20;;;;;;;29.23;17.17;;;1.80;99.90;;;;;;4873101;29;20063;-73
2021/04/07 10:57:48;;;;;;;25.13;16.83;;;1.90;99.90;;;;;;4889334;29;20632;-75
2021/04/07 11:00:28;;;;;;;32.90;19.48;;;1.90;99.90;;;;;;4892999;29;20061;-75
2021/04/07 11:02:56;;;;;;;28.08;16.83;;;1.90;99.90;;;;;;4887847;29;20060;-77
2021/04/07 11:05:39;;;;;;;27.45;17.55;;;2.00;99.90;;;;;;4906707;29;20136;-75
2021/04/07 11:08:08;;;;;;;34.35;19.88;;;1.80;99.90;;;;;;4874056;29;20049;-77
2021/04/07 11:10:43;;;;;;;29.90;17.63;;;1.80;99.90;;;;;;4856720;29;20055;-75
2021/04/07 11:13:12;;;;;;;31.05;19.15;;;1.80;99.90;;;;;;4895393;29;20145;-75
2021/04/07 11:15:39;;;;;;;39.92;22.08;;;1.80;99.90;;;;;;4877960;29;20037;-76
2021/04/07 11:18:09;;;;;;;33.78;18.55;;;1.80;99.90;;;;;;4868774;29;20080;-75
2021/04/07 11:20:41;;;;;;;41.72;23.63;;;1.70;99.90;;;;;;4858872;29;20056;-76
2021/04/07 11:23:08;;;;;;;37.72;19.80;;;1.70;99.90;;;;;;4834764;29;20060;-74
2021/04/07 11:25:39;;;;;;;44.15;25.75;;;1.70;99.90;;;;;;4856234;29;20036;-75
2021/04/07 11:28:15;;;;;;;37.40;22.10;;;1.80;99.90;;;;;;4861683;29;20049;-75
2021/04/07 11:30:54;;;;;;;35.72;22.52;;;2.00;99.90;;;;;;4864174;29;20086;-75
2021/04/07 11:33:24;;;;;;;37.83;22.33;;;2.10;99.90;;;;;;4868519;29;20087;-76
2021/04/07 11:44:31;;;;;;;30.48;20.02;;;2.60;99.90;;;;;;4886826;29;20125;-75
2021/04/07 11:46:59;;;;;;;34.50;20.75;;;2.80;99.90;;;;;;4889983;29;20055;-76
2021/04/07 11:49:26;;;;;;;31.85;21.02;;;2.90;99.90;;;;;;4886946;29;20049;-76
2021/04/07 11:51:53;;;;;;;29.55;19.95;;;3.10;99.90;;;;;;4898236;29;20112;-76
2021/04/07 11:54:20;;;;;;;25.77;19.95;;;3.40;99.90;;;;;;4905427;29;20065;-77
2021/04/07 11:56:48;;;;;;;18.58;16.08;;;3.80;99.90;;;;;;4889888;29;20056;-77
2021/04/07 11:59:19;;;;;;;19.35;15.85;;;4.10;99.90;;;;;;4906423;29;20056;-76
2021/04/07 12:01:48;;;;;;;24.35;20.80;;;4.00;99.90;;;;;;4890512;29;20162;-76
2021/04/07 12:04:16;;;;;;;20.48;17.92;;;4.30;99.90;;;;;;4883994;29;20052;-75
2021/04/07 12:06:42;;;;;;;19.65;17.58;;;4.30;99.90;;;;;;4868002;29;20119;-77
2021/04/07 12:09:09;;;;;;;21.58;18.40;;;4.00;99.90;;;;;;4889692;29;20059;-77
2021/04/07 12:11:36;;;;;;;24.83;19.73;;;3.90;99.90;;;;;;4887608;29;20052;-75
2021/04/07 12:14:04;;;;;;;22.63;18.48;;;3.90;99.90;;;;;;4904947;29;20064;-74
2021/04/07 12:16:31;;;;;;;24.92;18.33;;;3.90;99.90;;;;;;4886108;29;20053;-75
2021/04/07 12:18:58;;;;;;;27.52;17.63;;;3.80;99.90;;;;;;4888384;29;20085;-74
2021/04/07 12:21:24;;;;;;;24.25;17.10;;;3.80;99.90;;;;;;4851581;29;20428;-75
2021/04/07 12:23:52;;;;;;;23.65;16.58;;;3.90;99.90;;;;;;4877400;29;20059;-75
2021/04/07 12:26:18;;;;;;;28.20;17.67;;;3.80;99.90;;;;;;4879861;29;20049;-74
2021/04/07 12:28:50;;;;;;;25.00;17.85;;;3.60;99.90;;;;;;4876041;29;20049;-73
2021/04/07 12:31:20;;;;;;;30.05;18.80;;;3.60;99.90;;;;;;4880883;29;20179;-73
2021/04/07 12:33:52;;;;;;;29.10;17.95;;;3.60;99.90;;;;;;4905733;29;20068;-72
2021/04/07 12:36:21;;;;;;;33.53;18.10;;;3.50;99.90;;;;;;4868248;29;20689;-73
2021/04/07 12:38:47;;;;;;;29.70;17.63;;;3.30;99.90;;;;;;4890621;29;20071;-72
2021/04/07 12:41:22;;;;;;;36.65;19.67;;;3.20;99.90;;;;;;4888656;29;20067;-73
2021/04/07 12:43:49;;;;;;;33.83;19.95;;;3.10;99.90;;;;;;4886226;29;20053;-73
2021/04/07 12:46:16;;;;;;;37.47;21.50;;;2.90;99.90;;;;;;4871932;29;20057;-76
2021/04/07 12:48:47;;;;;;;43.80;24.17;;;3.00;99.90;;;;;;4873298;29;20112;-75